< < Back
Terminal Aerodrome Forecast


Current Version              Previous Versions:   1  2  3  4  5  6  7  8  9  

Terminal Aerodrome Forecast

347
FTUS44 KMRX 272320
TAFTYS
TAF
KTYS 272320Z 2800/2824 00000KT P6SM SKC
     FM281500 36003KT P6SM SCT040=

Latest METAR

038
SAUS80 KWBC 281100 RRA
MTRTYS
METAR KTYS 281053Z 00000KT 10SM FEW250 18/17 A3006 RMK AO2 SLP168
T01830172


USA.gov is the U.S. government's official web portal to all federal, state and local government web resources and services.